createdAt,value
2022-09-21T00:02:32.098Z,100.00
2022-09-21T00:05:18.729Z,100.00
2022-09-21T00:08:06.920Z,100.00
2022-09-21T00:10:53.107Z,100.00
2022-09-21T00:13:39.689Z,100.00
2022-09-21T00:16:26.595Z,100.00
2022-09-21T00:19:13.206Z,100.00
2022-09-21T00:21:59.418Z,100.00
2022-09-21T00:24:45.918Z,100.00
2022-09-21T00:27:32.570Z,100.00
2022-09-21T00:30:18.833Z,100.00
2022-09-21T00:33:05.312Z,100.00
2022-09-21T00:35:51.459Z,100.00
2022-09-21T00:38:38.448Z,100.00
2022-09-21T00:41:26.825Z,100.00
2022-09-21T00:44:28.989Z,100.00
2022-09-21T00:47:19.312Z,100.00
2022-09-21T00:50:11.459Z,100.00
2022-09-21T00:52:58.524Z,100.00
2022-09-21T00:55:49.900Z,100.00
2022-09-21T00:58:42.849Z,100.00
2022-09-21T01:01:29.045Z,100.00
2022-09-21T01:04:16.778Z,100.00
2022-09-21T01:07:07.505Z,100.00
2022-09-21T01:09:58.275Z,100.00
2022-09-21T01:13:18.821Z,100.00
2022-09-21T01:16:18.592Z,100.00
2022-09-21T01:19:24.846Z,100.00
2022-09-21T01:22:33.141Z,100.00
2022-09-21T01:25:53.252Z,100.00
2022-09-21T01:29:16.876Z,100.00
2022-09-21T01:32:13.117Z,100.00
2022-09-21T01:35:01.831Z,100.00
2022-09-21T01:37:56.974Z,100.00
2022-09-21T01:40:50.219Z,100.00
2022-09-21T01:43:40.402Z,100.00
2022-09-21T01:46:30.755Z,100.00
2022-09-21T01:49:23.470Z,100.00
2022-09-21T01:52:17.716Z,100.00
2022-09-21T01:55:10.692Z,100.00
2022-09-21T01:58:05.666Z,100.00
2022-09-21T02:00:55.506Z,100.00
2022-09-21T02:03:49.961Z,100.00
2022-09-21T02:06:42.462Z,100.00
2022-09-21T02:09:29.562Z,100.00
2022-09-21T02:12:19.071Z,100.00
2022-09-21T02:15:06.779Z,100.00
2022-09-21T02:18:35.974Z,100.00
2022-09-21T02:21:34.829Z,100.00
2022-09-21T02:24:43.506Z,100.00
2022-09-21T02:27:56.030Z,100.00
2022-09-21T02:30:53.544Z,100.00
2022-09-21T02:34:07.829Z,100.00
2022-09-21T02:37:25.720Z,100.00
2022-09-21T02:40:30.377Z,100.00
2022-09-21T02:43:27.871Z,100.00
2022-09-21T02:46:29.395Z,100.00
2022-09-21T02:49:26.239Z,100.00
2022-09-21T02:52:16.407Z,100.00
2022-09-21T02:55:04.082Z,100.00
2022-09-21T02:57:50.429Z,100.00
2022-09-21T03:00:37.075Z,100.00
2022-09-21T03:03:24.973Z,100.00
2022-09-21T03:06:11.612Z,100.00
2022-09-21T03:08:58.619Z,100.00
2022-09-21T03:11:44.713Z,100.00
2022-09-21T03:14:33.052Z,100.00
2022-09-21T03:17:19.977Z,100.00
2022-09-21T03:20:07.885Z,100.00
2022-09-21T03:22:54.375Z,100.00
2022-09-21T03:25:44.356Z,100.00
2022-09-21T03:28:30.970Z,100.00
2022-09-21T03:31:17.758Z,100.00
2022-09-21T03:34:03.952Z,100.00
2022-09-21T03:36:50.342Z,100.00
2022-09-21T03:39:36.685Z,100.00
2022-09-21T03:42:22.950Z,100.00
2022-09-21T03:45:11.490Z,100.00
2022-09-21T03:47:58.907Z,100.00
2022-09-21T03:50:45.546Z,100.00
2022-09-21T03:53:31.726Z,100.00
2022-09-21T03:56:17.765Z,100.00
2022-09-21T03:59:04.504Z,100.00
2022-09-21T04:01:50.898Z,100.00
2022-09-21T04:04:37.375Z,100.00
2022-09-21T04:07:23.852Z,100.00
2022-09-21T04:10:15.133Z,100.00
2022-09-21T04:13:03.364Z,100.00
2022-09-21T04:15:49.543Z,100.00
2022-09-21T04:18:37.932Z,100.00
2022-09-21T04:21:24.391Z,100.00
2022-09-21T04:24:10.472Z,100.00
2022-09-21T04:26:56.911Z,100.00
2022-09-21T04:29:44.369Z,100.00
2022-09-21T04:32:30.804Z,100.00
2022-09-21T04:35:17.406Z,100.00
2022-09-21T04:38:03.684Z,100.00
2022-09-21T04:40:59.759Z,100.00
2022-09-21T04:43:47.378Z,100.00
2022-09-21T04:46:33.871Z,100.00
2022-09-21T04:49:20.372Z,100.00
2022-09-21T04:52:06.787Z,100.00
2022-09-21T04:54:53.164Z,100.00
2022-09-21T04:57:39.692Z,100.00
2022-09-21T05:00:26.861Z,100.00
2022-09-21T05:03:13.015Z,100.00
2022-09-21T05:05:59.826Z,100.00
2022-09-21T05:09:04.969Z,100.00
2022-09-21T05:11:51.965Z,100.00
2022-09-21T05:14:38.455Z,100.00
2022-09-21T05:17:25.044Z,100.00
2022-09-21T05:20:11.697Z,100.00
2022-09-21T05:23:01.644Z,100.00
2022-09-21T05:25:47.821Z,100.00
2022-09-21T05:28:39.728Z,100.00
2022-09-21T05:32:00.095Z,100.00
2022-09-21T05:34:53.637Z,100.00
2022-09-21T05:38:01.234Z,100.00
2022-09-21T05:40:50.124Z,100.00
2022-09-21T05:43:36.667Z,100.00
2022-09-21T05:46:38.129Z,100.00
2022-09-21T05:50:00.780Z,100.00
2022-09-21T05:52:57.121Z,100.00
2022-09-21T05:55:49.840Z,100.00
2022-09-21T05:59:03.059Z,100.00
2022-09-21T06:02:03.185Z,100.00
2022-09-21T06:04:51.699Z,100.00
2022-09-21T06:07:38.234Z,100.00
2022-09-21T06:10:25.128Z,100.00
2022-09-21T06:13:11.772Z,100.00
2022-09-21T06:16:01.308Z,100.00
2022-09-21T06:18:47.861Z,100.00
2022-09-21T06:21:34.459Z,100.00
2022-09-21T06:24:23.504Z,100.00
2022-09-21T06:27:11.392Z,100.00
2022-09-21T06:29:58.585Z,100.00
2022-09-21T06:32:45.398Z,100.00
2022-09-21T06:35:35.793Z,100.00
2022-09-21T06:38:23.916Z,100.00
2022-09-21T06:41:11.299Z,100.00
2022-09-21T06:43:58.382Z,100.00
2022-09-21T06:46:45.526Z,100.00
2022-09-21T06:49:32.138Z,100.00
2022-09-21T06:52:19.258Z,100.00
2022-09-21T06:55:06.716Z,100.00
2022-09-21T06:57:53.022Z,100.00
2022-09-21T07:00:39.417Z,100.00
2022-09-21T07:03:25.577Z,100.00
2022-09-21T07:06:14.106Z,100.00
2022-09-21T07:12:08.511Z,100.00
2022-09-21T07:14:55.348Z,100.00
2022-09-21T07:17:43.071Z,100.00
2022-09-21T07:20:29.935Z,100.00
2022-09-21T07:23:19.273Z,100.00
2022-09-21T07:26:12.069Z,100.00
2022-09-21T07:28:58.541Z,100.00
2022-09-21T07:31:45.293Z,100.00
2022-09-21T07:34:35.392Z,100.00
2022-09-21T07:37:22.479Z,100.00
2022-09-21T07:40:09.698Z,100.00
2022-09-21T07:43:02.190Z,100.00
2022-09-21T07:45:58.335Z,100.00
2022-09-21T07:48:44.997Z,100.00
2022-09-21T07:51:32.012Z,100.00
2022-09-21T07:54:18.257Z,100.00
2022-09-21T07:57:23.244Z,100.00
2022-09-21T08:00:10.085Z,100.00
2022-09-21T08:03:01.145Z,100.00
2022-09-21T08:05:47.613Z,100.00
2022-09-21T08:08:34.110Z,100.00
2022-09-21T08:11:22.501Z,100.00
2022-09-21T08:14:09.968Z,100.00
2022-09-21T08:16:56.396Z,100.00
2022-09-21T08:19:42.523Z,100.00
2022-09-21T08:22:28.830Z,100.00
2022-09-21T08:25:15.042Z,100.00
2022-09-21T08:28:04.989Z,100.00
2022-09-21T08:30:54.209Z,100.00
2022-09-21T08:33:40.487Z,100.00
2022-09-21T08:36:27.032Z,100.00
2022-09-21T08:39:13.317Z,100.00
2022-09-21T08:42:41.071Z,100.00
2022-09-21T08:45:34.727Z,100.00
2022-09-21T08:48:30.002Z,100.00
2022-09-21T08:51:23.216Z,100.00
2022-09-21T08:54:19.257Z,100.00
2022-09-21T08:57:17.686Z,100.00
2022-09-21T09:00:13.034Z,100.00
2022-09-21T09:03:35.569Z,100.00
2022-09-21T09:06:37.884Z,100.00
2022-09-21T09:09:50.485Z,100.00
2022-09-21T09:12:53.587Z,100.00
2022-09-21T09:16:01.114Z,100.00
2022-09-21T09:19:23.142Z,100.00
2022-09-21T09:22:17.577Z,100.00
2022-09-21T09:25:15.126Z,100.00
2022-09-21T09:28:15.473Z,100.00
2022-09-21T09:31:18.275Z,97.92
2022-09-21T09:34:13.721Z,100.00
2022-09-21T09:37:10.026Z,96.60
2022-09-21T09:40:00.733Z,95.82
2022-09-21T09:43:06.006Z,97.56
2022-09-21T09:46:03.460Z,97.73
2022-09-21T09:49:09.282Z,95.40
2022-09-21T09:51:55.593Z,95.03
2022-09-21T09:54:42.226Z,97.69
2022-09-21T09:57:31.963Z,96.67
2022-09-21T10:00:20.457Z,95.17
2022-09-21T10:03:16.673Z,89.56
2022-09-21T10:06:03.386Z,87.99
2022-09-21T10:08:49.863Z,87.82
2022-09-21T10:11:38.456Z,85.57
2022-09-21T10:14:27.196Z,84.42
2022-09-21T10:17:17.515Z,80.78
2022-09-21T10:20:06.914Z,80.87
2022-09-21T10:22:55.330Z,81.80
2022-09-21T10:25:42.347Z,83.64
2022-09-21T10:28:29.010Z,80.59
2022-09-21T10:31:23.714Z,76.00
2022-09-21T10:34:15.125Z,75.47
2022-09-21T10:37:22.913Z,70.63
2022-09-21T10:40:21.447Z,71.53
2022-09-21T10:43:23.183Z,67.68
2022-09-21T10:46:11.925Z,71.78
2022-09-21T10:48:58.504Z,70.76
2022-09-21T10:51:47.306Z,71.07
2022-09-21T10:54:33.967Z,68.75
2022-09-21T10:57:23.901Z,66.72
2022-09-21T11:00:25.730Z,68.97
2022-09-21T11:03:30.117Z,70.54
2022-09-21T11:06:20.493Z,68.44
2022-09-21T11:09:12.316Z,66.11
2022-09-21T11:12:41.103Z,65.76
2022-09-21T11:15:42.739Z,67.20
2022-09-21T11:18:44.542Z,63.30
2022-09-21T11:21:57.729Z,62.61
2022-09-21T11:24:57.106Z,64.61
2022-09-21T11:27:49.274Z,62.52
2022-09-21T11:30:52.242Z,60.70
2022-09-21T11:34:16.441Z,60.46
2022-09-21T11:38:04.298Z,61.37
2022-09-21T11:41:06.372Z,61.42
2022-09-21T11:44:09.359Z,61.67
2022-09-21T11:47:34.417Z,63.17
2022-09-21T11:50:40.998Z,62.80
2022-09-21T11:53:46.737Z,63.24
2022-09-21T11:57:01.943Z,63.19
2022-09-21T12:00:07.088Z,64.62
2022-09-21T12:03:31.361Z,67.04
2022-09-21T12:06:44.508Z,60.59
2022-09-21T12:09:57.606Z,63.14
2022-09-21T12:12:54.293Z,62.43
2022-09-21T12:16:25.262Z,64.52
2022-09-21T12:19:17.271Z,61.59
2022-09-21T12:22:13.143Z,63.17
2022-09-21T12:25:13.183Z,58.49
2022-09-21T12:27:59.478Z,61.15
2022-09-21T12:30:51.255Z,58.90
2022-09-21T12:33:45.338Z,58.79
2022-09-21T12:36:40.968Z,60.59
2022-09-21T12:39:39.561Z,61.01
2022-09-21T12:42:41.757Z,59.78
2022-09-21T12:45:33.051Z,61.60
2022-09-21T12:48:34.661Z,58.86
2022-09-21T12:51:32.852Z,57.27
2022-09-21T12:54:36.260Z,54.71
2022-09-21T12:58:10.943Z,54.96
2022-09-21T13:01:16.742Z,57.50
2022-09-21T13:04:47.778Z,55.93
2022-09-21T13:07:55.777Z,54.80
2022-09-21T13:10:55.372Z,54.58
2022-09-21T13:13:52.877Z,55.66
2022-09-21T13:16:39.674Z,53.90
2022-09-21T13:19:30.040Z,57.37
2022-09-21T13:22:19.892Z,58.38
2022-09-21T13:25:19.481Z,55.59
2022-09-21T13:28:15.462Z,54.39
2022-09-21T13:31:39.789Z,53.38
2022-09-21T13:34:43.360Z,53.98
2022-09-21T13:37:30.332Z,52.58
2022-09-21T13:40:16.493Z,53.75
2022-09-21T13:43:17.318Z,48.85
2022-09-21T13:46:04.157Z,50.13
2022-09-21T13:48:53.765Z,48.24
2022-09-21T13:52:14.352Z,48.38
2022-09-21T13:55:04.243Z,47.08
2022-09-21T13:57:55.669Z,45.30
2022-09-21T14:00:51.215Z,47.80
2022-09-21T14:03:41.453Z,50.63
2022-09-21T14:06:35.645Z,51.90
2022-09-21T14:09:32.933Z,50.54
2022-09-21T14:12:23.487Z,53.57
2022-09-21T14:15:16.087Z,48.95
2022-09-21T14:18:35.722Z,49.52
2022-09-21T14:21:23.024Z,47.98
2022-09-21T14:24:20.425Z,47.90
2022-09-21T14:27:29.853Z,50.51
2022-09-21T14:30:25.989Z,48.45
2022-09-21T14:33:25.308Z,49.71
2022-09-21T14:36:19.521Z,49.12
2022-09-21T14:39:13.371Z,50.12
2022-09-21T14:42:12.459Z,49.90
2022-09-21T14:45:02.077Z,51.59
2022-09-21T14:47:57.222Z,50.40
2022-09-21T14:50:59.594Z,50.20
2022-09-21T14:54:06.450Z,49.67
2022-09-21T14:57:10.133Z,49.12
2022-09-21T15:00:20.886Z,47.29
2022-09-21T15:03:28.509Z,46.41
2022-09-21T15:06:39.928Z,46.59
2022-09-21T15:09:59.922Z,49.29
2022-09-21T15:13:08.222Z,49.21
2022-09-21T15:16:17.281Z,49.83
2022-09-21T15:19:14.334Z,50.20
2022-09-21T15:22:15.409Z,49.54
2022-09-21T15:25:05.926Z,49.50
2022-09-21T15:27:52.858Z,49.63
2022-09-21T15:30:45.749Z,50.21
2022-09-21T15:33:36.643Z,51.46
2022-09-21T15:36:28.114Z,50.96
2022-09-21T15:39:29.309Z,52.21
2022-09-21T15:42:22.747Z,51.32
2022-09-21T15:45:19.057Z,51.58
2022-09-21T15:48:13.489Z,51.23
2022-09-21T15:51:10.461Z,50.54
2022-09-21T15:54:26.903Z,50.10
2022-09-21T15:57:41.264Z,50.24
2022-09-21T16:00:31.721Z,48.73
2022-09-21T16:03:20.845Z,48.41
2022-09-21T16:06:22.449Z,49.84
2022-09-21T16:09:24.389Z,49.27
2022-09-21T16:12:26.046Z,50.05
2022-09-21T16:15:29.105Z,48.98
2022-09-21T16:18:38.981Z,49.71
2022-09-21T16:21:28.174Z,50.12
2022-09-21T16:24:22.834Z,51.39
2022-09-21T16:27:17.150Z,51.81
2022-09-21T16:30:04.287Z,51.14
2022-09-21T16:32:52.219Z,52.22
2022-09-21T16:35:40.831Z,51.30
2022-09-21T16:38:27.279Z,52.96
2022-09-21T16:41:16.884Z,53.42
2022-09-21T16:44:03.663Z,54.08
2022-09-21T16:46:56.312Z,55.21
2022-09-21T16:49:43.261Z,55.70
2022-09-21T16:52:30.584Z,56.25
2022-09-21T16:55:17.120Z,55.84
2022-09-21T16:58:03.506Z,55.74
2022-09-21T17:01:00.014Z,55.54
2022-09-21T17:03:47.828Z,56.93
2022-09-21T17:06:36.702Z,56.82
2022-09-21T17:09:35.558Z,57.36
2022-09-21T17:12:22.127Z,57.48
2022-09-21T17:15:12.551Z,57.86
2022-09-21T17:17:59.210Z,58.45
2022-09-21T17:20:45.731Z,60.03
2022-09-21T17:23:31.895Z,59.60
2022-09-21T17:26:19.427Z,59.58
2022-09-21T17:29:22.350Z,60.09
2022-09-21T17:32:10.758Z,60.67
2022-09-21T17:35:14.111Z,61.86
2022-09-21T17:38:00.787Z,60.55
2022-09-21T17:40:47.279Z,62.09
2022-09-21T17:43:56.363Z,66.48
2022-09-21T17:46:52.120Z,72.74
2022-09-21T17:49:38.622Z,79.08
2022-09-21T17:52:43.971Z,83.20
2022-09-21T17:55:30.702Z,86.70
2022-09-21T17:58:38.440Z,90.21
2022-09-21T18:01:52.445Z,91.02
2022-09-21T18:04:39.314Z,95.33
2022-09-21T18:07:25.979Z,97.08
2022-09-21T18:10:14.089Z,98.05
2022-09-21T18:13:12.632Z,99.10
2022-09-21T18:16:33.530Z,100.00
2022-09-21T18:20:02.640Z,100.00
2022-09-21T18:23:13.824Z,100.00
2022-09-21T18:26:00.580Z,100.00
2022-09-21T18:28:57.845Z,100.00
2022-09-21T18:31:56.346Z,100.00
2022-09-21T18:35:08.619Z,100.00
2022-09-21T18:38:32.075Z,100.00
2022-09-21T18:41:31.012Z,100.00
2022-09-21T18:44:34.096Z,100.00
2022-09-21T18:47:28.567Z,100.00
2022-09-21T18:50:34.506Z,100.00
2022-09-21T18:53:29.734Z,100.00
2022-09-21T18:56:16.667Z,100.00
2022-09-21T18:59:05.802Z,100.00
2022-09-21T19:01:53.052Z,100.00
2022-09-21T19:04:39.862Z,100.00
2022-09-21T19:07:54.151Z,100.00
2022-09-21T19:10:51.010Z,100.00
2022-09-21T19:13:54.539Z,100.00
2022-09-21T19:17:29.381Z,100.00
2022-09-21T19:20:44.074Z,100.00
2022-09-21T19:23:59.131Z,100.00
2022-09-21T19:27:08.736Z,100.00
2022-09-21T19:30:08.439Z,100.00
2022-09-21T19:33:00.466Z,100.00
2022-09-21T19:35:46.778Z,100.00
2022-09-21T19:38:34.218Z,100.00
2022-09-21T19:41:43.450Z,100.00
2022-09-21T19:44:45.242Z,100.00
2022-09-21T19:47:38.614Z,100.00
2022-09-21T19:50:40.740Z,100.00
2022-09-21T19:53:46.281Z,100.00
2022-09-21T19:56:55.395Z,100.00
2022-09-21T19:59:45.556Z,100.00
2022-09-21T20:02:42.361Z,100.00
2022-09-21T20:05:54.810Z,100.00
2022-09-21T20:09:05.245Z,100.00
2022-09-21T20:12:26.635Z,100.00
2022-09-21T20:15:29.331Z,100.00
2022-09-21T20:18:29.434Z,100.00
2022-09-21T20:21:19.093Z,100.00
2022-09-21T20:24:19.745Z,100.00
2022-09-21T20:27:39.163Z,100.00
2022-09-21T20:30:31.381Z,100.00
2022-09-21T20:33:22.635Z,100.00
2022-09-21T20:36:09.474Z,100.00
2022-09-21T20:38:57.715Z,100.00
2022-09-21T20:41:44.117Z,100.00
2022-09-21T20:44:31.170Z,100.00
2022-09-21T20:47:21.168Z,100.00
2022-09-21T20:50:11.596Z,100.00
2022-09-21T20:52:57.740Z,100.00
2022-09-21T20:55:53.148Z,100.00
2022-09-21T20:58:39.716Z,100.00
2022-09-21T21:01:26.945Z,100.00
2022-09-21T21:04:14.083Z,100.00
2022-09-21T21:07:00.165Z,100.00
2022-09-21T21:09:46.496Z,100.00
2022-09-21T21:12:32.916Z,100.00
2022-09-21T21:15:19.295Z,100.00
2022-09-21T21:18:05.474Z,100.00
2022-09-21T21:20:52.414Z,100.00
2022-09-21T21:23:57.274Z,100.00
2022-09-21T21:27:01.165Z,100.00
2022-09-21T21:29:52.901Z,100.00
2022-09-21T21:32:39.213Z,100.00
2022-09-21T21:35:25.894Z,100.00
2022-09-21T21:38:13.407Z,100.00
2022-09-21T21:41:00.190Z,100.00
2022-09-21T21:43:46.835Z,100.00
2022-09-21T21:46:33.086Z,100.00
2022-09-21T21:49:20.922Z,100.00
2022-09-21T21:52:08.278Z,100.00
2022-09-21T21:54:54.697Z,100.00
2022-09-21T21:57:41.321Z,100.00
2022-09-21T22:00:27.738Z,100.00
2022-09-21T22:03:13.897Z,100.00
2022-09-21T22:06:00.574Z,100.00
2022-09-21T22:08:46.914Z,100.00
2022-09-21T22:11:33.773Z,100.00
2022-09-21T22:14:20.151Z,100.00
2022-09-21T22:17:06.318Z,100.00
2022-09-21T22:19:54.029Z,100.00
2022-09-21T22:22:40.914Z,100.00
2022-09-21T22:25:28.326Z,100.00
2022-09-21T22:28:14.372Z,100.00
2022-09-21T22:31:01.731Z,100.00
2022-09-21T22:33:48.595Z,100.00
2022-09-21T22:36:36.623Z,100.00
2022-09-21T22:39:22.544Z,100.00
2022-09-21T22:42:11.459Z,100.00
2022-09-21T22:44:58.045Z,100.00
2022-09-21T22:47:44.494Z,100.00
2022-09-21T22:50:30.813Z,100.00
2022-09-21T22:53:17.653Z,100.00
2022-09-21T22:56:15.630Z,100.00
2022-09-21T22:59:04.410Z,100.00
2022-09-21T23:01:50.764Z,100.00
2022-09-21T23:04:37.179Z,100.00
2022-09-21T23:07:23.826Z,100.00
2022-09-21T23:10:10.246Z,100.00
2022-09-21T23:12:58.031Z,100.00
2022-09-21T23:15:44.335Z,100.00
2022-09-21T23:18:31.560Z,100.00
2022-09-21T23:21:20.872Z,100.00
2022-09-21T23:24:07.655Z,100.00
2022-09-21T23:26:54.190Z,100.00
2022-09-21T23:29:40.378Z,100.00
2022-09-21T23:32:27.781Z,100.00
2022-09-21T23:35:14.320Z,100.00
2022-09-21T23:38:00.372Z,100.00
2022-09-21T23:40:47.015Z,100.00
2022-09-21T23:43:34.863Z,100.00
2022-09-21T23:46:25.316Z,100.00
2022-09-21T23:49:11.600Z,100.00
2022-09-21T23:51:57.945Z,100.00
2022-09-21T23:54:45.460Z,100.00
2022-09-21T23:57:31.543Z,100.00
